sensor_id;sensor_type;location;lat;lon;timestamp;pressure;altitude;pressure_sealevel;temperature;humidity
74573;BME280;63071;51.526;-0.134;2022-09-25T00:01:36;101582.03;;;23.24;37.67
74573;BME280;63071;51.526;-0.134;2022-09-25T00:04:02;101575.47;;;23.21;37.36
74573;BME280;63071;51.526;-0.134;2022-09-25T00:06:29;101573.19;;;23.19;37.48
74573;BME280;63071;51.526;-0.134;2022-09-25T00:08:55;101577.78;;;23.23;37.28
74573;BME280;63071;51.526;-0.134;2022-09-25T00:11:32;101578.56;;;23.23;37.43
74573;BME280;63071;51.526;-0.134;2022-09-25T00:13:59;101578.97;;;23.25;37.27
74573;BME280;63071;51.526;-0.134;2022-09-25T00:16:30;101575.22;;;23.26;37.61
74573;BME280;63071;51.526;-0.134;2022-09-25T00:18:57;101582.06;;;23.27;37.34
74573;BME280;63071;51.526;-0.134;2022-09-25T00:21:42;101582.44;;;23.26;37.05
74573;BME280;63071;51.526;-0.134;2022-09-25T00:24:09;101586.63;;;23.27;37.25
74573;BME280;63071;51.526;-0.134;2022-09-25T00:26:40;101585.88;;;23.26;37.14
74573;BME280;63071;51.526;-0.134;2022-09-25T00:29:09;101587.34;;;23.24;37.47
74573;BME280;63071;51.526;-0.134;2022-09-25T00:31:37;101592.75;;;23.27;37.21
74573;BME280;63071;51.526;-0.134;2022-09-25T00:34:04;101585.88;;;23.26;37.21
74573;BME280;63071;51.526;-0.134;2022-09-25T00:36:30;101587.34;;;23.24;37.31
74573;BME280;63071;51.526;-0.134;2022-09-25T00:38:57;101594.31;;;23.28;37.24
74573;BME280;63071;51.526;-0.134;2022-09-25T00:41:24;101594.50;;;23.19;37.14
74573;BME280;63071;51.526;-0.134;2022-09-25T00:43:54;101603.78;;;23.26;37.37
74573;BME280;63071;51.526;-0.134;2022-09-25T00:46:43;101606.06;;;23.27;37.18
74573;BME280;63071;51.526;-0.134;2022-09-25T00:49:15;101599.97;;;23.27;37.25
74573;BME280;63071;51.526;-0.134;2022-09-25T00:54:39;101614.38;;;23.22;36.89
74573;BME280;63071;51.526;-0.134;2022-09-25T00:57:10;101620.03;;;23.20;37.05
74573;BME280;63071;51.526;-0.134;2022-09-25T00:59:40;101612.03;;;23.20;37.32
74573;BME280;63071;51.526;-0.134;2022-09-25T01:02:11;101606.72;;;23.20;36.97
74573;BME280;63071;51.526;-0.134;2022-09-25T01:04:41;101603.69;;;23.22;37.15
74573;BME280;63071;51.526;-0.134;2022-09-25T01:07:10;101605.59;;;23.22;36.97
74573;BME280;63071;51.526;-0.134;2022-09-25T01:09:36;101605.22;;;23.23;37.05
74573;BME280;63071;51.526;-0.134;2022-09-25T01:12:02;101601.03;;;23.22;37.03
74573;BME280;63071;51.526;-0.134;2022-09-25T01:14:28;101603.34;;;23.24;37.07
74573;BME280;63071;51.526;-0.134;2022-09-25T01:19:48;101595.19;;;23.16;36.71
74573;BME280;63071;51.526;-0.134;2022-09-25T01:22:38;101601.72;;;23.19;37.24
74573;BME280;63071;51.526;-0.134;2022-09-25T01:25:19;101602.06;;;23.17;37.17
74573;BME280;63071;51.526;-0.134;2022-09-25T01:30:39;101577.84;;;23.07;36.98
74573;BME280;63071;51.526;-0.134;2022-09-25T01:36:52;101596.25;;;23.12;37.02
74573;BME280;63071;51.526;-0.134;2022-09-25T01:39:18;101602.69;;;23.11;37.11
74573;BME280;63071;51.526;-0.134;2022-09-25T01:41:57;101593.06;;;23.06;37.27
74573;BME280;63071;51.526;-0.134;2022-09-25T01:44:30;101594.56;;;23.04;37.25
74573;BME280;63071;51.526;-0.134;2022-09-25T01:47:21;101580.59;;;22.94;36.65
74573;BME280;63071;51.526;-0.134;2022-09-25T01:49:55;101592.81;;;22.95;37.06
74573;BME280;63071;51.526;-0.134;2022-09-25T01:52:30;101598.31;;;23.03;37.13
74573;BME280;63071;51.526;-0.134;2022-09-25T01:55:07;101581.03;;;22.96;36.73
74573;BME280;63071;51.526;-0.134;2022-09-25T01:57:40;101600.66;;;23.04;37.14
74573;BME280;63071;51.526;-0.134;2022-09-25T02:00:11;101606.75;;;23.05;36.64
74573;BME280;63071;51.526;-0.134;2022-09-25T02:02:54;101604.06;;;23.05;36.62
74573;BME280;63071;51.526;-0.134;2022-09-25T02:05:32;101594.56;;;23.04;37.15
74573;BME280;63071;51.526;-0.134;2022-09-25T02:08:04;101592.66;;;23.04;36.74
74573;BME280;63071;51.526;-0.134;2022-09-25T02:10:40;101588.50;;;23.07;36.64
74573;BME280;63071;51.526;-0.134;2022-09-25T02:13:15;101592.34;;;23.09;36.56
74573;BME280;63071;51.526;-0.134;2022-09-25T02:15:45;101587.19;;;23.00;36.57
74573;BME280;63071;51.526;-0.134;2022-09-25T02:18:16;101597.63;;;23.06;36.35
74573;BME280;63071;51.526;-0.134;2022-09-25T02:21:13;101599.16;;;23.07;36.72
74573;BME280;63071;51.526;-0.134;2022-09-25T02:24:13;101596.84;;;23.05;36.85
74573;BME280;63071;51.526;-0.134;2022-09-25T02:26:42;101598.75;;;23.05;36.65
74573;BME280;63071;51.526;-0.134;2022-09-25T02:29:08;101597.09;;;23.00;36.85
74573;BME280;63071;51.526;-0.134;2022-09-25T02:31:46;101602.13;;;23.02;36.90
74573;BME280;63071;51.526;-0.134;2022-09-25T02:34:13;101593.00;;;23.03;36.61
74573;BME280;63071;51.526;-0.134;2022-09-25T02:36:39;101586.88;;;23.02;37.07
74573;BME280;63071;51.526;-0.134;2022-09-25T02:39:07;101593.06;;;23.06;36.47
74573;BME280;63071;51.526;-0.134;2022-09-25T02:44:25;101598.75;;;23.05;36.52
74573;BME280;63071;51.526;-0.134;2022-09-25T02:52:41;101604.84;;;23.05;36.37
74573;BME280;63071;51.526;-0.134;2022-09-25T02:55:24;101603.31;;;23.04;36.34
74573;BME280;63071;51.526;-0.134;2022-09-25T02:58:12;101598.56;;;22.97;36.51
74573;BME280;63071;51.526;-0.134;2022-09-25T03:00:44;101608.97;;;23.03;36.23
74573;BME280;63071;51.526;-0.134;2022-09-25T03:03:15;101605.22;;;23.04;36.25
74573;BME280;63071;51.526;-0.134;2022-09-25T03:05:42;101606.75;;;23.05;36.59
74573;BME280;63071;51.526;-0.134;2022-09-25T03:08:08;101588.94;;;22.93;36.45
74573;BME280;63071;51.526;-0.134;2022-09-25T03:10:53;101596.78;;;23.02;36.18
74573;BME280;63071;51.526;-0.134;2022-09-25T03:13:22;101602.69;;;22.95;36.29
74573;BME280;63071;51.526;-0.134;2022-09-25T03:16:02;101608.09;;;22.98;36.30
74573;BME280;63071;51.526;-0.134;2022-09-25T03:18:29;101605.78;;;22.97;36.31
74573;BME280;63071;51.526;-0.134;2022-09-25T03:20:56;101610.69;;;22.95;36.46
74573;BME280;63071;51.526;-0.134;2022-09-25T03:23:21;101613.00;;;22.96;36.62
74573;BME280;63071;51.526;-0.134;2022-09-25T03:25:47;101603.47;;;22.95;36.32
74573;BME280;63071;51.526;-0.134;2022-09-25T03:28:14;101599.97;;;22.91;36.44
74573;BME280;63071;51.526;-0.134;2022-09-25T03:30:39;101603.81;;;22.94;36.38
74573;BME280;63071;51.526;-0.134;2022-09-25T03:33:12;101605.34;;;22.95;36.52
74573;BME280;63071;51.526;-0.134;2022-09-25T03:35:38;101598.84;;;22.92;36.41
74573;BME280;63071;51.526;-0.134;2022-09-25T03:38:05;101598.75;;;22.89;36.35
74573;BME280;63071;51.526;-0.134;2022-09-25T03:40:32;101594.97;;;22.90;36.21
74573;BME280;63071;51.526;-0.134;2022-09-25T03:42:58;101596.88;;;22.89;36.59
74573;BME280;63071;51.526;-0.134;2022-09-25T03:45:23;101597.22;;;22.88;36.20
74573;BME280;63071;51.526;-0.134;2022-09-25T03:47:49;101597.63;;;22.90;36.57
74573;BME280;63071;51.526;-0.134;2022-09-25T03:50:14;101598.31;;;22.87;36.35
74573;BME280;63071;51.526;-0.134;2022-09-25T03:52:40;101586.03;;;22.82;36.03
74573;BME280;63071;51.526;-0.134;2022-09-25T03:55:05;101594.13;;;22.86;35.93
74573;BME280;63071;51.526;-0.134;2022-09-25T03:57:31;101593.78;;;22.87;35.95
74573;BME280;63071;51.526;-0.134;2022-09-25T03:59:57;101599.88;;;22.88;36.60
74573;BME280;63071;51.526;-0.134;2022-09-25T04:02:27;101586.13;;;22.86;36.41
74573;BME280;63071;51.526;-0.134;2022-09-25T04:04:53;101583.03;;;22.84;36.63
74573;BME280;63071;51.526;-0.134;2022-09-25T04:07:22;101584.50;;;22.81;36.55
74573;BME280;63071;51.526;-0.134;2022-09-25T04:09:48;101585.28;;;22.82;36.03
74573;BME280;63071;51.526;-0.134;2022-09-25T04:12:14;101590.19;;;22.79;35.94
74573;BME280;63071;51.526;-0.134;2022-09-25T04:14:39;101578.66;;;22.75;35.91
74573;BME280;63071;51.526;-0.134;2022-09-25T04:17:06;101572.81;;;22.70;36.12
74573;BME280;63071;51.526;-0.134;2022-09-25T04:19:32;101579.69;;;22.71;36.30
74573;BME280;63071;51.526;-0.134;2022-09-25T04:21:58;101581.56;;;22.70;36.01
74573;BME280;63071;51.526;-0.134;2022-09-25T04:24:23;101583.13;;;22.71;36.52
74573;BME280;63071;51.526;-0.134;2022-09-25T04:27:07;101585.00;;;22.71;36.53
74573;BME280;63071;51.526;-0.134;2022-09-25T04:29:34;101581.50;;;22.67;36.57
74573;BME280;63071;51.526;-0.134;2022-09-25T04:32:00;101576.53;;;22.65;36.07
74573;BME280;63071;51.526;-0.134;2022-09-25T04:35:04;101583.06;;;22.68;36.37
74573;BME280;63071;51.526;-0.134;2022-09-25T04:37:30;101577.72;;;22.68;36.05
74573;BME280;63071;51.526;-0.134;2022-09-25T04:39:56;101570.16;;;22.70;36.44
74573;BME280;63071;51.526;-0.134;2022-09-25T04:42:23;101575.06;;;22.68;36.46
74573;BME280;63071;51.526;-0.134;2022-09-25T04:44:54;101576.25;;;22.70;36.37
74573;BME280;63071;51.526;-0.134;2022-09-25T04:47:21;101577.81;;;22.71;36.59
74573;BME280;63071;51.526;-0.134;2022-09-25T04:49:47;101571.69;;;22.71;36.19
74573;BME280;63071;51.526;-0.134;2022-09-25T04:52:17;101569.03;;;22.71;36.58
74573;BME280;63071;51.526;-0.134;2022-09-25T04:54:44;101571.78;;;22.74;36.07
74573;BME280;63071;51.526;-0.134;2022-09-25T04:57:18;101567.56;;;22.73;36.04
74573;BME280;63071;51.526;-0.134;2022-09-25T04:59:44;101563.34;;;22.72;36.03
74573;BME280;63071;51.526;-0.134;2022-09-25T05:02:11;101564.91;;;22.73;36.35
74573;BME280;63071;51.526;-0.134;2022-09-25T05:04:37;101564.13;;;22.73;36.12
74573;BME280;63071;51.526;-0.134;2022-09-25T05:07:03;101564.13;;;22.73;36.45
74573;BME280;63071;51.526;-0.134;2022-09-25T05:09:29;101568.25;;;22.70;35.83
74573;BME280;63071;51.526;-0.134;2022-09-25T05:11:54;101556.75;;;22.66;36.02
74573;BME280;63071;51.526;-0.134;2022-09-25T05:14:20;101565.94;;;22.69;35.97
74573;BME280;63071;51.526;-0.134;2022-09-25T05:16:47;101565.44;;;22.63;36.26
74573;BME280;63071;51.526;-0.134;2022-09-25T05:19:12;101565.44;;;22.63;36.56
74573;BME280;63071;51.526;-0.134;2022-09-25T05:21:39;101567.31;;;22.63;35.77
74573;BME280;63071;51.526;-0.134;2022-09-25T05:24:04;101576.44;;;22.62;36.59
74573;BME280;63071;51.526;-0.134;2022-09-25T05:26:32;101568.09;;;22.63;35.90
74573;BME280;63071;51.526;-0.134;2022-09-25T05:28:59;101558.47;;;22.58;35.94
74573;BME280;63071;51.526;-0.134;2022-09-25T05:31:24;101572.72;;;22.66;35.95
74573;BME280;63071;51.526;-0.134;2022-09-25T05:33:50;101562.06;;;22.66;36.07
74573;BME280;63071;51.526;-0.134;2022-09-25T05:36:16;101557.88;;;22.65;35.92
74573;BME280;63071;51.526;-0.134;2022-09-25T05:38:43;101560.13;;;22.63;36.14
74573;BME280;63071;51.526;-0.134;2022-09-25T05:41:09;101566.22;;;22.64;35.99
74573;BME280;63071;51.526;-0.134;2022-09-25T05:43:43;101566.22;;;22.64;36.58
74573;BME280;63071;51.526;-0.134;2022-09-25T05:46:12;101563.53;;;22.64;36.73
74573;BME280;63071;51.526;-0.134;2022-09-25T05:48:38;101566.53;;;22.62;35.85
74573;BME280;63071;51.526;-0.134;2022-09-25T05:51:05;101567.75;;;22.65;36.06
74573;BME280;63071;51.526;-0.134;2022-09-25T05:53:31;101569.97;;;22.63;36.30
74573;BME280;63071;51.526;-0.134;2022-09-25T05:56:00;101563.44;;;22.60;36.25
74573;BME280;63071;51.526;-0.134;2022-09-25T05:58:27;101566.47;;;22.58;35.99
74573;BME280;63071;51.526;-0.134;2022-09-25T06:00:53;101577.53;;;22.60;35.86
74573;BME280;63071;51.526;-0.134;2022-09-25T06:03:20;101572.59;;;22.59;36.25
74573;BME280;63071;51.526;-0.134;2022-09-25T06:05:46;101580.91;;;22.57;36.24
74573;BME280;63071;51.526;-0.134;2022-09-25T06:08:12;101571.34;;;22.56;35.98
74573;BME280;63071;51.526;-0.134;2022-09-25T06:10:39;101586.66;;;22.59;36.20
74573;BME280;63071;51.526;-0.134;2022-09-25T06:13:05;101577.81;;;22.55;36.34
74573;BME280;63071;51.526;-0.134;2022-09-25T06:15:38;101587.34;;;22.56;35.85
74573;BME280;63071;51.526;-0.134;2022-09-25T06:18:07;101582.00;;;22.56;36.33
74573;BME280;63071;51.526;-0.134;2022-09-25T06:20:34;101582.72;;;22.53;36.40
74573;BME280;63071;51.526;-0.134;2022-09-25T06:23:00;101585.72;;;22.52;36.26
74573;BME280;63071;51.526;-0.134;2022-09-25T06:25:28;101588.38;;;22.52;36.24
74573;BME280;63071;51.526;-0.134;2022-09-25T06:27:55;101589.84;;;22.49;36.08
74573;BME280;63071;51.526;-0.134;2022-09-25T06:30:23;101587.97;;;22.50;36.22
74573;BME280;63071;51.526;-0.134;2022-09-25T06:32:57;101587.97;;;22.50;36.29
74573;BME280;63071;51.526;-0.134;2022-09-25T06:35:24;101583.75;;;22.49;36.08
74573;BME280;63071;51.526;-0.134;2022-09-25T06:37:51;101588.38;;;22.52;35.86
74573;BME280;63071;51.526;-0.134;2022-09-25T06:40:16;101592.94;;;22.51;35.98
74573;BME280;63071;51.526;-0.134;2022-09-25T06:42:42;101594.84;;;22.51;35.87
74573;BME280;63071;51.526;-0.134;2022-09-25T06:45:08;101589.53;;;22.51;36.31
74573;BME280;63071;51.526;-0.134;2022-09-25T06:47:35;101596.28;;;22.48;36.27
74573;BME280;63071;51.526;-0.134;2022-09-25T06:50:01;101599.03;;;22.52;36.08
74573;BME280;63071;51.526;-0.134;2022-09-25T06:52:26;101604.03;;;22.53;36.21
74573;BME280;63071;51.526;-0.134;2022-09-25T06:54:52;101595.94;;;22.50;36.07
74573;BME280;63071;51.526;-0.134;2022-09-25T06:57:17;101592.09;;;22.47;36.19
74573;BME280;63071;51.526;-0.134;2022-09-25T06:59:43;101589.53;;;22.51;35.72
74573;BME280;63071;51.526;-0.134;2022-09-25T07:02:08;101588.72;;;22.50;35.88
74573;BME280;63071;51.526;-0.134;2022-09-25T07:04:52;101591.06;;;22.52;36.13
74573;BME280;63071;51.526;-0.134;2022-09-25T07:07:18;101592.59;;;22.53;35.80
74573;BME280;63071;51.526;-0.134;2022-09-25T07:09:44;101591.38;;;22.50;35.74
74573;BME280;63071;51.526;-0.134;2022-09-25T07:12:13;101587.19;;;22.49;36.29
74573;BME280;63071;51.526;-0.134;2022-09-25T07:14:39;101596.38;;;22.52;36.29
74573;BME280;63071;51.526;-0.134;2022-09-25T07:17:06;101574.53;;;22.46;35.65
74573;BME280;63071;51.526;-0.134;2022-09-25T07:19:32;101586.84;;;22.51;36.05
74573;BME280;63071;51.526;-0.134;2022-09-25T07:21:57;101584.09;;;22.47;36.02
74573;BME280;63071;51.526;-0.134;2022-09-25T07:24:23;101590.28;;;22.51;35.58
74573;BME280;63071;51.526;-0.134;2022-09-25T07:26:49;101591.31;;;22.47;35.92
74573;BME280;63071;51.526;-0.134;2022-09-25T07:29:16;101585.28;;;22.50;35.88
74573;BME280;63071;51.526;-0.134;2022-09-25T07:31:42;101594.84;;;22.51;36.26
74573;BME280;63071;51.526;-0.134;2022-09-25T07:34:07;101589.09;;;22.49;36.09
74573;BME280;63071;51.526;-0.134;2022-09-25T07:36:34;101591.81;;;22.52;35.71
74573;BME280;63071;51.526;-0.134;2022-09-25T07:38:59;101590.28;;;22.51;35.98
74573;BME280;63071;51.526;-0.134;2022-09-25T07:41:25;101594.47;;;22.52;36.04
74573;BME280;63071;51.526;-0.134;2022-09-25T07:43:55;101594.06;;;22.50;35.64
74573;BME280;63071;51.526;-0.134;2022-09-25T07:46:25;101597.84;;;22.49;35.98
74573;BME280;63071;51.526;-0.134;2022-09-25T07:48:51;101597.09;;;22.49;35.64
74573;BME280;63071;51.526;-0.134;2022-09-25T07:51:18;101594.75;;;22.47;36.39
74573;BME280;63071;51.526;-0.134;2022-09-25T07:53:46;101595.63;;;22.51;35.72
74573;BME280;63071;51.526;-0.134;2022-09-25T07:56:12;101593.28;;;22.50;35.97
74573;BME280;63071;51.526;-0.134;2022-09-25T07:58:38;101604.72;;;22.50;35.66
74573;BME280;63071;51.526;-0.134;2022-09-25T08:01:06;101597.84;;;22.49;36.21
74573;BME280;63071;51.526;-0.134;2022-09-25T08:03:32;101600.59;;;22.53;35.74
74573;BME280;63071;51.526;-0.134;2022-09-25T08:06:03;101604.81;;;22.54;36.08
74573;BME280;63071;51.526;-0.134;2022-09-25T08:08:29;101602.47;;;22.52;35.99
74573;BME280;63071;51.526;-0.134;2022-09-25T08:11:02;101600.19;;;22.51;35.95
74573;BME280;63071;51.526;-0.134;2022-09-25T08:13:29;101591.75;;;22.49;36.13
74573;BME280;63071;51.526;-0.134;2022-09-25T08:15:56;101599.81;;;22.52;35.42
74573;BME280;63071;51.526;-0.134;2022-09-25T08:18:22;101601.03;;;22.55;35.45
74573;BME280;63071;51.526;-0.134;2022-09-25T08:20:47;101604.38;;;22.52;35.73
74573;BME280;63071;51.526;-0.134;2022-09-25T08:23:13;101604.03;;;22.53;35.32
74573;BME280;63071;51.526;-0.134;2022-09-25T08:25:38;101603.28;;;22.53;35.74
74573;BME280;63071;51.526;-0.134;2022-09-25T08:28:03;101610.13;;;22.54;35.47
74573;BME280;63071;51.526;-0.134;2022-09-25T08:30:29;101611.25;;;22.53;35.83
74573;BME280;63071;51.526;-0.134;2022-09-25T08:32:54;101619.59;;;22.51;36.07
74573;BME280;63071;51.526;-0.134;2022-09-25T08:35:20;101615.38;;;22.50;35.64
74573;BME280;63071;51.526;-0.134;2022-09-25T08:37:46;101601.28;;;22.50;35.22
74573;BME280;63071;51.526;-0.134;2022-09-25T08:40:18;101612.47;;;22.55;35.43
74573;BME280;63071;51.526;-0.134;2022-09-25T08:42:47;101609.78;;;22.55;35.81
74573;BME280;63071;51.526;-0.134;2022-09-25T08:45:34;101614.00;;;22.56;35.95
74573;BME280;63071;51.526;-0.134;2022-09-25T08:48:31;101616.59;;;22.53;35.69
74573;BME280;63071;51.526;-0.134;2022-09-25T08:51:17;101615.03;;;22.52;35.81
74573;BME280;63071;51.526;-0.134;2022-09-25T08:53:44;101613.94;;;22.53;35.58
74573;BME280;63071;51.526;-0.134;2022-09-25T08:56:12;101609.34;;;22.53;35.89
74573;BME280;63071;51.526;-0.134;2022-09-25T08:59:23;101622.78;;;22.57;35.60
74573;BME280;63071;51.526;-0.134;2022-09-25T09:01:55;101622.78;;;22.57;35.48
74573;BME280;63071;51.526;-0.134;2022-09-25T09:04:49;101614.00;;;22.56;35.21
74573;BME280;63071;51.526;-0.134;2022-09-25T09:07:24;101617.50;;;22.60;35.51
74573;BME280;63071;51.526;-0.134;2022-09-25T09:09:59;101619.84;;;22.62;35.56
74573;BME280;63071;51.526;-0.134;2022-09-25T09:12:37;101604.97;;;22.61;35.68
74573;BME280;63071;51.526;-0.134;2022-09-25T09:15:26;101612.59;;;22.63;35.17
74573;BME280;63071;51.526;-0.134;2022-09-25T09:17:55;101611.06;;;22.62;35.74
74573;BME280;63071;51.526;-0.134;2022-09-25T09:20:52;101611.75;;;22.58;34.94
74573;BME280;63071;51.526;-0.134;2022-09-25T09:23:20;101611.84;;;22.62;35.77
74573;BME280;63071;51.526;-0.134;2022-09-25T09:33:59;101604.38;;;22.68;35.28
74573;BME280;63071;51.526;-0.134;2022-09-25T09:39:09;101605.56;;;22.70;35.50
74573;BME280;63071;51.526;-0.134;2022-09-25T09:52:51;101595.34;;;22.72;35.33
74573;BME280;63071;51.526;-0.134;2022-09-25T09:58:01;101594.31;;;22.77;34.68
74573;BME280;63071;51.526;-0.134;2022-09-25T10:00:29;101584.00;;;22.75;34.77
74573;BME280;63071;51.526;-0.134;2022-09-25T10:03:18;101578.75;;;22.79;34.22
74573;BME280;63071;51.526;-0.134;2022-09-25T10:05:51;101583.19;;;22.75;34.70
74573;BME280;63071;51.526;-0.134;2022-09-25T10:08:19;101591.66;;;22.77;34.32
74573;BME280;63071;51.526;-0.134;2022-09-25T10:10:48;101574.09;;;22.76;34.10
74573;BME280;63071;51.526;-0.134;2022-09-25T10:13:23;101578.75;;;22.79;34.02
74573;BME280;63071;51.526;-0.134;2022-09-25T10:15:53;101574.59;;;22.82;33.71
74573;BME280;63071;51.526;-0.134;2022-09-25T10:18:26;101570.03;;;22.82;33.67
74573;BME280;63071;51.526;-0.134;2022-09-25T10:21:05;101567.38;;;22.82;33.29
74573;BME280;63071;51.526;-0.134;2022-09-25T10:26:30;101565.06;;;22.80;33.60
74573;BME280;63071;51.526;-0.134;2022-09-25T10:28:59;101554.34;;;22.77;33.73
74573;BME280;63071;51.526;-0.134;2022-09-25T10:31:39;101553.63;;;22.80;33.61
74573;BME280;63071;51.526;-0.134;2022-09-25T10:34:19;101551.06;;;22.84;33.46
74573;BME280;63071;51.526;-0.134;2022-09-25T10:36:50;101552.66;;;22.88;32.94
74573;BME280;63071;51.526;-0.134;2022-09-25T10:39:26;101551.97;;;22.91;33.06
74573;BME280;63071;51.526;-0.134;2022-09-25T10:41:54;101542.75;;;22.89;32.94
74573;BME280;63071;51.526;-0.134;2022-09-25T10:44:22;101539.50;;;22.95;33.33
74573;BME280;63071;51.526;-0.134;2022-09-25T10:46:52;101541.75;;;22.93;32.75
74573;BME280;63071;51.526;-0.134;2022-09-25T10:49:46;101537.59;;;22.96;32.77
74573;BME280;63071;51.526;-0.134;2022-09-25T10:52:47;101536.47;;;22.97;32.67
74573;BME280;63071;51.526;-0.134;2022-09-25T10:55:21;101535.00;;;22.99;33.09
74573;BME280;63071;51.526;-0.134;2022-09-25T10:58:18;101543.47;;;23.02;32.45
74573;BME280;63071;51.526;-0.134;2022-09-25T11:03:20;101534.34;;;23.03;31.92
74573;BME280;63071;51.526;-0.134;2022-09-25T11:06:03;101521.84;;;23.07;31.81
74573;BME280;63071;51.526;-0.134;2022-09-25T11:08:34;101521.41;;;23.05;32.09
74573;BME280;63071;51.526;-0.134;2022-09-25T11:11:05;101511.59;;;23.09;31.76
74573;BME280;63071;51.526;-0.134;2022-09-25T11:13:43;101505.84;;;23.07;31.82
74573;BME280;63071;51.526;-0.134;2022-09-25T11:16:10;101494.06;;;23.08;31.66
74573;BME280;63071;51.526;-0.134;2022-09-25T11:24:28;101498.91;;;23.02;30.83
74573;BME280;63071;51.526;-0.134;2022-09-25T11:27:20;101493.47;;;22.98;30.96
74573;BME280;63071;51.526;-0.134;2022-09-25T11:30:04;101484.63;;;22.94;31.05
74573;BME280;63071;51.526;-0.134;2022-09-25T11:35:56;101476.63;;;22.94;30.90
74573;BME280;63071;51.526;-0.134;2022-09-25T11:41:49;101471.28;;;22.94;30.62
74573;BME280;63071;51.526;-0.134;2022-09-25T11:44:26;101475.16;;;22.97;30.71
74573;BME280;63071;51.526;-0.134;2022-09-25T11:47:14;101473.28;;;22.97;30.12
74573;BME280;63071;51.526;-0.134;2022-09-25T11:49:42;101475.16;;;22.97;29.84
74573;BME280;63071;51.526;-0.134;2022-09-25T11:52:18;101471.28;;;22.94;29.89
74573;BME280;63071;51.526;-0.134;2022-09-25T11:54:58;101460.22;;;22.92;30.47
74573;BME280;63071;51.526;-0.134;2022-09-25T12:13:47;101432.16;;;22.98;29.85
74573;BME280;63071;51.526;-0.134;2022-09-25T12:22:19;101429.25;;;23.04;29.71
74573;BME280;63071;51.526;-0.134;2022-09-25T12:27:48;101411.03;;;23.09;30.21
74573;BME280;63071;51.526;-0.134;2022-09-25T12:30:22;101408.44;;;23.13;30.27
74573;BME280;63071;51.526;-0.134;2022-09-25T12:35:45;101402.00;;;23.14;29.65
74573;BME280;63071;51.526;-0.134;2022-09-25T12:41:01;101408.09;;;23.14;29.39
74573;BME280;63071;51.526;-0.134;2022-09-25T12:43:49;101396.59;;;23.10;29.63
74573;BME280;63071;51.526;-0.134;2022-09-25T12:51:48;101393.53;;;23.08;29.48
74573;BME280;63071;51.526;-0.134;2022-09-25T12:54:26;101390.09;;;23.08;28.94
74573;BME280;63071;51.526;-0.134;2022-09-25T12:57:16;101387.34;;;23.04;29.04
74573;BME280;63071;51.526;-0.134;2022-09-25T13:00:03;101383.53;;;23.05;29.28
74573;BME280;63071;51.526;-0.134;2022-09-25T13:08:42;101382.91;;;23.12;29.66
74573;BME280;63071;51.526;-0.134;2022-09-25T13:11:30;101379.47;;;23.11;29.15
74573;BME280;63071;51.526;-0.134;2022-09-25T13:13:58;101371.53;;;23.15;29.54
74573;BME280;63071;51.526;-0.134;2022-09-25T13:16:26;101368.53;;;23.16;29.73
74573;BME280;63071;51.526;-0.134;2022-09-25T13:19:10;101371.19;;;23.16;29.38
74573;BME280;63071;51.526;-0.134;2022-09-25T13:21:41;101366.28;;;23.18;29.48
74573;BME280;63071;51.526;-0.134;2022-09-25T13:24:15;101363.19;;;23.16;29.39
74573;BME280;63071;51.526;-0.134;2022-09-25T13:26:53;101364.78;;;23.21;29.59
74573;BME280;63071;51.526;-0.134;2022-09-25T13:29:24;101362.50;;;23.19;28.95
74573;BME280;63071;51.526;-0.134;2022-09-25T13:32:02;101364.72;;;23.17;28.97
74573;BME280;63071;51.526;-0.134;2022-09-25T13:34:36;101358.63;;;23.17;29.61
74573;BME280;63071;51.526;-0.134;2022-09-25T13:37:06;101362.84;;;23.18;29.27
74573;BME280;63071;51.526;-0.134;2022-09-25T13:39:33;101362.13;;;23.21;29.64
74573;BME280;63071;51.526;-0.134;2022-09-25T13:42:32;101354.91;;;23.22;29.17
74573;BME280;63071;51.526;-0.134;2022-09-25T14:03:00;101322.13;;;23.21;28.81
74573;BME280;63071;51.526;-0.134;2022-09-25T14:05:33;101322.13;;;23.21;28.57
74573;BME280;63071;51.526;-0.134;2022-09-25T14:08:22;101323.25;;;23.20;28.46
74573;BME280;63071;51.526;-0.134;2022-09-25T14:10:54;101325.16;;;23.19;28.30
74573;BME280;63071;51.526;-0.134;2022-09-25T14:13:24;101319.44;;;23.21;28.65
74573;BME280;63071;51.526;-0.134;2022-09-25T14:15:55;101311.44;;;23.21;28.83
74573;BME280;63071;51.526;-0.134;2022-09-25T14:18:24;101313.00;;;23.22;28.37
74573;BME280;63071;51.526;-0.134;2022-09-25T14:20:56;101304.66;;;23.24;28.73
74573;BME280;63071;51.526;-0.134;2022-09-25T14:23:28;101306.53;;;23.23;28.93
74573;BME280;63071;51.526;-0.134;2022-09-25T14:26:03;101300.50;;;23.26;28.69
74573;BME280;63071;51.526;-0.134;2022-09-25T14:28:42;101307.00;;;23.29;29.03
74573;BME280;63071;51.526;-0.134;2022-09-25T14:32:01;101303.56;;;23.28;28.30
74573;BME280;63071;51.526;-0.134;2022-09-25T14:45:22;101294.03;;;23.27;28.54
74573;BME280;63071;51.526;-0.134;2022-09-25T14:47:57;101300.16;;;23.28;28.74
74573;BME280;63071;51.526;-0.134;2022-09-25T14:50:43;101301.66;;;23.29;28.18
74573;BME280;63071;51.526;-0.134;2022-09-25T14:56:03;101295.56;;;23.28;28.67
74573;BME280;63071;51.526;-0.134;2022-09-25T14:58:34;101294.81;;;23.28;28.55
74573;BME280;63071;51.526;-0.134;2022-09-25T15:01:30;101295.56;;;23.28;28.57
74573;BME280;63071;51.526;-0.134;2022-09-25T15:04:06;101289.00;;;23.22;28.65
74573;BME280;63071;51.526;-0.134;2022-09-25T15:06:38;101295.56;;;23.28;28.76
74573;BME280;63071;51.526;-0.134;2022-09-25T15:09:38;101292.16;;;23.28;28.30
74573;BME280;63071;51.526;-0.134;2022-09-25T15:12:27;101287.56;;;23.28;28.50
74573;BME280;63071;51.526;-0.134;2022-09-25T15:15:05;101280.69;;;23.27;29.03
74573;BME280;63071;51.526;-0.134;2022-09-25T15:17:37;101272.34;;;23.29;28.58
74573;BME280;63071;51.526;-0.134;2022-09-25T15:20:12;101270.44;;;23.29;28.58
74573;BME280;63071;51.526;-0.134;2022-09-25T15:22:41;101262.81;;;23.28;28.70